Time;durP1;ratioP1;P1;durP2;ratioP2;P2;SDS_P1;SDS_P2;PMS_P1;PMS_P2;Temp;Humidity;BMP_temperature;BMP_pressure;BME280_temperature;BME280_humidity;BME280_pressure;Samples;Min_cycle;Max_cycle;Signal;HPM_P1;HPM_P2
2022/03/25 00:02:19;;;;;;;29.00;24.88;;;13.00;86.60;;;;;;5035631;28;20051;-72
2022/03/25 00:04:45;;;;;;;27.95;23.77;;;12.90;87.10;;;;;;5035551;28;20048;-72
2022/03/25 00:07:10;;;;;;;28.38;24.45;;;12.90;87.80;;;;;;5034081;28;20025;-71
2022/03/25 00:09:36;;;;;;;27.63;24.73;;;12.90;88.40;;;;;;5035369;28;20049;-71
2022/03/25 00:12:04;;;;;;;27.88;24.45;;;12.90;88.50;;;;;;5035336;28;20182;-73
2022/03/25 00:14:30;;;;;;;28.30;24.13;;;12.90;88.50;;;;;;5035432;28;20026;-72
2022/03/25 00:16:56;;;;;;;30.92;23.80;;;12.80;87.90;;;;;;5035575;28;20051;-71
2022/03/25 00:19:22;;;;;;;28.20;23.08;;;12.80;87.20;;;;;;5035189;28;20530;-70
2022/03/25 00:21:47;;;;;;;27.75;23.55;;;12.80;86.50;;;;;;5035174;28;20359;-74
2022/03/25 00:24:13;;;;;;;25.88;23.00;;;12.80;86.20;;;;;;5034909;28;20059;-73
2022/03/25 00:26:39;;;;;;;32.67;23.45;;;12.80;85.40;;;;;;5034877;28;20351;-71
2022/03/25 00:29:04;;;;;;;31.02;22.77;;;12.70;84.00;;;;;;5035153;28;20116;-71
2022/03/25 00:31:30;;;;;;;31.77;22.27;;;12.70;83.20;;;;;;5034879;28;20470;-70
2022/03/25 00:33:56;;;;;;;31.98;22.73;;;12.70;81.70;;;;;;5033741;28;20029;-70
2022/03/25 00:36:23;;;;;;;31.90;25.02;;;12.60;80.30;;;;;;5033760;28;20029;-73
2022/03/25 00:38:49;;;;;;;30.27;23.23;;;12.60;79.20;;;;;;5034003;28;20029;-73
2022/03/25 00:41:16;;;;;;;32.47;23.63;;;12.50;78.20;;;;;;5034436;28;20045;-71
2022/03/25 00:43:46;;;;;;;32.45;24.52;;;12.50;76.90;;;;;;5034706;28;20033;-73
2022/03/25 00:46:12;;;;;;;32.65;24.33;;;12.50;75.70;;;;;;5034993;28;20478;-73
2022/03/25 00:48:42;;;;;;;31.05;23.42;;;12.50;74.70;;;;;;5034644;28;20071;-72
2022/03/25 00:51:08;;;;;;;38.25;23.40;;;12.40;73.60;;;;;;5034611;28;20134;-71
2022/03/25 00:53:34;;;;;;;30.50;23.40;;;12.40;72.30;;;;;;5033177;28;20379;-72
2022/03/25 00:56:01;;;;;;;35.95;24.00;;;12.50;70.40;;;;;;5034575;28;20138;-72
2022/03/25 00:58:27;;;;;;;34.78;23.65;;;12.50;69.10;;;;;;5034444;28;20026;-72
2022/03/25 01:00:53;;;;;;;29.38;23.15;;;12.50;66.60;;;;;;5034592;28;20029;-72
2022/03/25 01:03:19;;;;;;;40.58;24.33;;;12.40;66.20;;;;;;5034635;28;20367;-72
2022/03/25 01:05:44;;;;;;;33.28;24.45;;;12.40;65.50;;;;;;5034455;28;20151;-73
2022/03/25 01:08:11;;;;;;;39.92;24.13;;;12.40;64.50;;;;;;5034347;28;20433;-72
2022/03/25 01:10:37;;;;;;;36.28;24.13;;;12.40;64.20;;;;;;5034139;28;20446;-73
2022/03/25 01:13:04;;;;;;;35.20;24.65;;;12.30;63.40;;;;;;5034139;28;20424;-72
2022/03/25 01:15:30;;;;;;;33.65;24.23;;;12.30;62.70;;;;;;5034208;28;20064;-72
2022/03/25 01:17:56;;;;;;;33.05;23.58;;;12.20;62.40;;;;;;5034268;28;20104;-73
2022/03/25 01:20:22;;;;;;;38.00;24.95;;;12.20;62.20;;;;;;5033957;28;20034;-71
2022/03/25 01:22:49;;;;;;;44.55;24.08;;;12.20;61.60;;;;;;5033919;28;20025;-72
2022/03/25 01:25:15;;;;;;;34.85;24.50;;;12.10;61.10;;;;;;5033893;28;20059;-72
2022/03/25 01:27:41;;;;;;;36.47;23.45;;;12.10;60.80;;;;;;5033770;28;20128;-73
2022/03/25 01:30:07;;;;;;;35.42;24.10;;;12.00;59.50;;;;;;5033538;28;20539;-71
2022/03/25 01:32:34;;;;;;;34.55;22.33;;;11.90;59.80;;;;;;5033515;28;20040;-71
2022/03/25 01:35:00;;;;;;;35.38;23.35;;;11.80;59.30;;;;;;5033539;28;20057;-72
2022/03/25 01:37:29;;;;;;;30.80;22.23;;;11.80;59.20;;;;;;5033565;28;20030;-72
2022/03/25 01:39:55;;;;;;;28.70;22.20;;;11.70;58.40;;;;;;5033640;28;20467;-71
2022/03/25 01:42:34;;;;;;;32.58;21.33;;;11.60;58.00;;;;;;5033399;28;20045;-71
2022/03/25 01:45:01;;;;;;;27.98;20.83;;;11.50;58.10;;;;;;5033512;28;20416;-72
2022/03/25 01:47:28;;;;;;;29.70;21.15;;;11.50;57.50;;;;;;5033289;28;20064;-73
2022/03/25 01:49:57;;;;;;;31.75;20.25;;;11.40;57.20;;;;;;5033010;28;20443;-70
2022/03/25 01:52:23;;;;;;;29.15;20.17;;;11.40;58.10;;;;;;5033320;28;20127;-72
2022/03/25 01:54:49;;;;;;;30.15;21.17;;;11.40;57.20;;;;;;5033276;28;20475;-73
2022/03/25 01:57:15;;;;;;;30.75;20.30;;;11.30;57.10;;;;;;5033102;28;20018;-71
2022/03/25 01:59:41;;;;;;;28.73;19.58;;;11.20;56.50;;;;;;5033165;28;20028;-71
2022/03/25 02:02:09;;;;;;;30.92;20.00;;;11.10;56.80;;;;;;5031879;28;20018;-71
2022/03/25 02:04:35;;;;;;;27.63;19.75;;;11.10;56.90;;;;;;5033150;28;20025;-73
2022/03/25 02:07:02;;;;;;;28.63;21.27;;;11.10;57.00;;;;;;5033331;28;20017;-73
2022/03/25 02:09:28;;;;;;;29.00;20.55;;;11.10;56.90;;;;;;5033261;28;20474;-72
2022/03/25 02:11:55;;;;;;;29.80;20.35;;;11.10;56.90;;;;;;5033010;28;20029;-72
2022/03/25 02:14:22;;;;;;;26.65;20.85;;;11.00;56.70;;;;;;5033264;28;20059;-72
2022/03/25 02:16:49;;;;;;;27.92;20.40;;;11.00;57.00;;;;;;5033199;28;20033;-72
2022/03/25 02:19:18;;;;;;;26.13;20.95;;;11.10;56.90;;;;;;5031545;28;20028;-72
2022/03/25 02:21:45;;;;;;;29.23;21.48;;;11.10;56.80;;;;;;5032978;28;20386;-73
2022/03/25 02:24:15;;;;;;;30.35;21.05;;;11.10;56.60;;;;;;5032947;28;20529;-73
2022/03/25 02:26:41;;;;;;;25.80;20.30;;;11.00;56.70;;;;;;5032906;28;20687;-72
2022/03/25 02:29:09;;;;;;;27.75;19.90;;;11.10;56.70;;;;;;5032997;28;20021;-73
2022/03/25 02:31:36;;;;;;;28.40;20.00;;;11.10;56.60;;;;;;5033045;28;20042;-73
2022/03/25 02:34:08;;;;;;;24.45;19.30;;;11.10;56.50;;;;;;5032951;28;20100;-72
2022/03/25 02:36:42;;;;;;;30.50;21.55;;;11.00;56.20;;;;;;5032632;28;20032;-73
2022/03/25 02:39:09;;;;;;;30.08;21.00;;;11.00;56.50;;;;;;5032534;28;20017;-71
2022/03/25 02:41:35;;;;;;;26.58;20.20;;;11.00;56.40;;;;;;5032466;28;20045;-71
2022/03/25 02:44:01;;;;;;;27.65;20.05;;;11.00;56.60;;;;;;5032591;28;20018;-70
2022/03/25 02:46:28;;;;;;;33.25;21.73;;;11.00;56.80;;;;;;5032464;28;20050;-71
2022/03/25 02:48:54;;;;;;;40.10;24.27;;;10.90;57.00;;;;;;5032663;28;20091;-71
2022/03/25 02:51:20;;;;;;;30.80;22.15;;;10.90;57.50;;;;;;5032479;28;20113;-72
2022/03/25 02:53:46;;;;;;;35.63;21.60;;;10.80;57.40;;;;;;5032444;28;20022;-71
2022/03/25 02:56:11;;;;;;;27.98;21.95;;;10.80;57.60;;;;;;5032517;28;20026;-72
2022/03/25 02:58:38;;;;;;;34.28;21.70;;;10.70;58.00;;;;;;5032421;28;20028;-73
2022/03/25 03:01:05;;;;;;;31.48;21.08;;;10.70;58.00;;;;;;5032312;28;20069;-73
2022/03/25 03:03:30;;;;;;;27.67;19.10;;;10.60;57.50;;;;;;5033740;28;20083;-73
2022/03/25 03:05:56;;;;;;;26.08;19.48;;;10.50;57.30;;;;;;5036547;28;20033;-72
2022/03/25 03:08:22;;;;;;;25.40;19.38;;;10.50;57.30;;;;;;5036371;28;20037;-71
2022/03/25 03:10:48;;;;;;;32.10;18.05;;;10.50;57.10;;;;;;5036477;28;20029;-71
2022/03/25 03:13:14;;;;;;;25.90;18.38;;;10.40;56.70;;;;;;5036456;28;20029;-72
2022/03/25 03:15:40;;;;;;;25.17;17.25;;;10.30;56.90;;;;;;5036343;28;20034;-72
2022/03/25 03:18:06;;;;;;;25.42;17.48;;;10.30;56.70;;;;;;5036346;28;20025;-72
2022/03/25 03:20:32;;;;;;;22.50;16.88;;;10.40;56.50;;;;;;5036291;28;20152;-71
2022/03/25 03:22:58;;;;;;;22.58;17.17;;;10.40;56.40;;;;;;5036171;28;20014;-73
2022/03/25 03:25:26;;;;;;;26.63;19.15;;;10.40;56.50;;;;;;5036055;28;20025;-72
2022/03/25 03:27:52;;;;;;;25.17;17.50;;;10.30;56.40;;;;;;5034862;28;20026;-73
2022/03/25 03:30:19;;;;;;;24.85;18.60;;;10.30;56.60;;;;;;5035937;28;20103;-73
2022/03/25 03:32:45;;;;;;;23.80;17.42;;;10.30;56.90;;;;;;5036243;28;20039;-71
2022/03/25 03:35:11;;;;;;;27.25;18.15;;;10.20;56.80;;;;;;5036099;28;20021;-72
2022/03/25 03:37:42;;;;;;;25.38;18.70;;;10.20;57.00;;;;;;5035943;28;20057;-72
2022/03/25 03:40:09;;;;;;;30.85;18.63;;;10.20;57.30;;;;;;5035769;28;20030;-71
2022/03/25 03:42:36;;;;;;;27.65;19.63;;;10.30;57.50;;;;;;5035506;28;20533;-72
2022/03/25 03:45:02;;;;;;;26.40;20.40;;;10.20;57.60;;;;;;5035755;28;20029;-73
2022/03/25 03:47:27;;;;;;;28.85;20.65;;;10.20;58.20;;;;;;5035893;28;20405;-72
2022/03/25 03:49:53;;;;;;;29.83;19.67;;;10.20;58.70;;;;;;5035627;28;20014;-73
2022/03/25 03:52:19;;;;;;;29.40;22.27;;;10.20;59.50;;;;;;5035719;28;20034;-72
2022/03/25 03:54:45;;;;;;;26.83;21.80;;;10.10;59.50;;;;;;5035694;28;20022;-71
2022/03/25 03:57:11;;;;;;;31.98;22.00;;;10.00;60.00;;;;;;5034217;28;20029;-72
2022/03/25 03:59:36;;;;;;;28.38;21.27;;;10.00;60.70;;;;;;5035437;28;20014;-71
2022/03/25 04:02:03;;;;;;;31.42;22.23;;;9.90;62.10;;;;;;5035528;28;20033;-73
2022/03/25 04:04:29;;;;;;;28.95;20.95;;;9.90;63.30;;;;;;5035446;28;20022;-72
2022/03/25 04:06:54;;;;;;;35.25;22.60;;;10.00;61.90;;;;;;5035459;28;20062;-72
2022/03/25 04:09:20;;;;;;;33.40;21.95;;;10.00;62.20;;;;;;5035270;28;20093;-71
2022/03/25 04:11:46;;;;;;;32.15;22.23;;;10.10;62.50;;;;;;5035224;28;20116;-72
2022/03/25 04:14:12;;;;;;;31.13;21.52;;;10.00;61.70;;;;;;5035047;28;20032;-74
2022/03/25 04:16:38;;;;;;;28.10;21.45;;;10.00;62.30;;;;;;5034009;28;20470;-71
2022/03/25 04:19:03;;;;;;;27.95;20.10;;;10.00;62.90;;;;;;5035167;28;20044;-72
2022/03/25 04:21:29;;;;;;;26.38;20.38;;;10.00;63.30;;;;;;5035073;28;20044;-72
2022/03/25 04:23:55;;;;;;;29.45;21.25;;;10.10;63.00;;;;;;5035119;28;20079;-71
2022/03/25 04:26:21;;;;;;;31.63;21.33;;;10.10;62.70;;;;;;5034969;28;20105;-72
2022/03/25 04:28:46;;;;;;;30.13;20.27;;;10.00;62.80;;;;;;5033672;28;20040;-72
2022/03/25 04:31:12;;;;;;;33.00;20.67;;;10.00;63.10;;;;;;5035207;28;20482;-71
2022/03/25 04:33:38;;;;;;;28.67;20.73;;;10.00;63.00;;;;;;5034865;28;20047;-72
2022/03/25 04:36:04;;;;;;;29.60;20.55;;;10.00;63.20;;;;;;5035005;28;20356;-73
2022/03/25 04:38:29;;;;;;;27.92;20.73;;;10.00;63.00;;;;;;5034908;28;20067;-72
2022/03/25 04:40:56;;;;;;;30.17;20.88;;;10.00;63.10;;;;;;5034735;28;20033;-71
2022/03/25 04:43:23;;;;;;;29.73;19.48;;;9.90;64.10;;;;;;5033459;28;20037;-70
2022/03/25 04:45:48;;;;;;;25.48;19.80;;;9.90;63.90;;;;;;5034806;28;20112;-71
2022/03/25 04:48:14;;;;;;;25.08;20.15;;;9.80;64.00;;;;;;5034811;28;20474;-72
2022/03/25 04:50:40;;;;;;;26.25;20.30;;;9.70;64.40;;;;;;5034687;28;20033;-71
2022/03/25 04:53:07;;;;;;;27.17;19.58;;;9.70;64.30;;;;;;5034727;28;20119;-73
2022/03/25 04:55:33;;;;;;;25.40;18.73;;;9.70;63.90;;;;;;5034503;28;20467;-71
2022/03/25 04:57:59;;;;;;;25.23;18.60;;;9.60;63.80;;;;;;5034608;28;20109;-72
2022/03/25 05:00:24;;;;;;;28.90;19.50;;;9.60;64.00;;;;;;5034421;28;20156;-72
2022/03/25 05:02:50;;;;;;;26.00;18.70;;;9.50;64.20;;;;;;5034316;28;20037;-72
2022/03/25 05:05:16;;;;;;;25.17;19.50;;;9.50;64.30;;;;;;5032930;28;20510;-72
2022/03/25 05:07:43;;;;;;;25.02;18.40;;;9.50;64.40;;;;;;5034242;28;20022;-72
2022/03/25 05:10:10;;;;;;;28.15;20.60;;;9.50;64.50;;;;;;5033951;28;20033;-72
2022/03/25 05:12:36;;;;;;;26.40;19.45;;;9.50;64.30;;;;;;5034152;28;20031;-72
2022/03/25 05:15:02;;;;;;;25.70;19.08;;;9.50;64.30;;;;;;5034096;28;20025;-73
2022/03/25 05:17:28;;;;;;;26.90;19.23;;;9.50;64.30;;;;;;5033934;28;20025;-72
2022/03/25 05:19:54;;;;;;;26.00;18.20;;;9.60;64.50;;;;;;5033843;28;20071;-71
2022/03/25 05:22:20;;;;;;;28.27;19.45;;;9.60;63.80;;;;;;5033939;28;20021;-71
2022/03/25 05:24:46;;;;;;;23.27;18.20;;;9.50;63.80;;;;;;5033777;28;20175;-72
2022/03/25 05:27:11;;;;;;;25.58;19.25;;;9.50;63.80;;;;;;5033707;28;20360;-73
2022/03/25 05:29:37;;;;;;;31.48;18.63;;;9.40;64.40;;;;;;5033905;28;20033;-71
2022/03/25 05:32:03;;;;;;;28.42;18.42;;;9.50;64.20;;;;;;5033899;28;20033;-72
2022/03/25 05:34:29;;;;;;;28.48;18.63;;;9.50;64.10;;;;;;5033943;28;20045;-71
2022/03/25 05:36:55;;;;;;;28.98;20.95;;;9.60;63.90;;;;;;5034048;28;20390;-72
2022/03/25 05:39:21;;;;;;;26.25;18.42;;;9.60;63.70;;;;;;5033968;28;20026;-72
2022/03/25 05:41:46;;;;;;;25.48;18.55;;;9.60;63.40;;;;;;5033954;28;20102;-71
2022/03/25 05:44:13;;;;;;;27.35;18.35;;;9.60;63.50;;;;;;5033578;28;20067;-73
2022/03/25 05:46:39;;;;;;;28.10;18.45;;;9.70;63.30;;;;;;5033566;28;20033;-72
2022/03/25 05:49:04;;;;;;;24.92;18.17;;;9.80;63.20;;;;;;5034514;28;20113;-73
2022/03/25 05:51:31;;;;;;;27.83;18.00;;;9.80;62.70;;;;;;5034766;28;20517;-72
2022/03/25 05:53:57;;;;;;;26.00;19.42;;;9.80;62.50;;;;;;5033709;28;20038;-72
2022/03/25 05:56:23;;;;;;;28.42;17.90;;;9.80;62.20;;;;;;5036214;28;20025;-73
2022/03/25 05:58:49;;;;;;;25.48;18.05;;;10.00;61.20;;;;;;5038948;28;20032;-72
2022/03/25 06:01:14;;;;;;;30.17;19.05;;;10.10;60.40;;;;;;5041452;28;20100;-71
2022/03/25 06:03:41;;;;;;;23.95;18.67;;;10.10;60.10;;;;;;5043994;28;20048;-72
2022/03/25 06:06:07;;;;;;;26.70;19.38;;;10.10;60.00;;;;;;5038495;28;20547;-71
2022/03/25 06:08:32;;;;;;;24.35;18.67;;;10.10;60.00;;;;;;5052435;28;20029;-70
2022/03/25 06:10:59;;;;;;;24.75;17.58;;;10.20;59.70;;;;;;5053151;28;20029;-71
2022/03/25 06:13:26;;;;;;;27.92;18.08;;;10.30;59.10;;;;;;5053256;28;20032;-71
2022/03/25 06:15:53;;;;;;;27.00;19.27;;;10.50;59.40;;;;;;5053376;28;20021;-70
2022/03/25 06:18:18;;;;;;;25.83;17.70;;;10.70;59.50;;;;;;5053161;28;20043;-71
2022/03/25 06:20:44;;;;;;;25.83;18.50;;;10.90;58.50;;;;;;5053116;28;20486;-70
2022/03/25 06:23:10;;;;;;;26.48;18.30;;;11.10;57.70;;;;;;5053177;28;20043;-70
2022/03/25 06:25:35;;;;;;;23.20;18.30;;;11.20;57.30;;;;;;5052992;28;20021;-71
2022/03/25 06:28:04;;;;;;;28.77;17.60;;;11.40;57.40;;;;;;5052572;28;20509;-71
2022/03/25 06:30:34;;;;;;;28.48;18.38;;;11.50;56.60;;;;;;5052616;28;20025;-70
2022/03/25 06:33:01;;;;;;;26.05;17.38;;;11.60;56.90;;;;;;5042511;28;20045;-70
2022/03/25 06:35:27;;;;;;;23.10;16.80;;;11.80;56.50;;;;;;5047752;28;20036;-72
2022/03/25 06:37:53;;;;;;;24.92;17.67;;;11.80;55.00;;;;;;5052128;28;20043;-71
2022/03/25 06:40:20;;;;;;;27.00;18.60;;;11.80;54.60;;;;;;5052270;28;20017;-70
2022/03/25 06:42:46;;;;;;;23.83;17.48;;;11.90;54.80;;;;;;5052362;28;20045;-72
2022/03/25 06:45:14;;;;;;;20.90;16.80;;;12.00;54.30;;;;;;5045755;28;20490;-70
2022/03/25 06:47:40;;;;;;;25.75;17.38;;;12.20;54.00;;;;;;5044144;28;20033;-71
2022/03/25 06:50:08;;;;;;;23.27;17.38;;;12.40;53.90;;;;;;5051739;28;20025;-70
2022/03/25 06:52:36;;;;;;;27.95;19.17;;;12.50;53.70;;;;;;5043251;28;20474;-71
2022/03/25 06:55:02;;;;;;;24.60;17.08;;;12.70;52.30;;;;;;5037625;28;20026;-71
2022/03/25 06:57:28;;;;;;;30.00;16.63;;;12.90;52.10;;;;;;5032471;28;20044;-71
2022/03/25 06:59:54;;;;;;;22.88;17.90;;;12.80;51.90;;;;;;5036519;28;20025;-72
2022/03/25 07:02:20;;;;;;;32.42;18.33;;;12.90;50.80;;;;;;5052100;28;20022;-72
2022/03/25 07:04:46;;;;;;;25.15;18.55;;;13.00;50.40;;;;;;5050999;28;20036;-71
2022/03/25 07:07:12;;;;;;;28.25;18.45;;;13.00;50.30;;;;;;5050861;28;20021;-70
2022/03/25 07:09:38;;;;;;;32.95;18.60;;;13.00;50.00;;;;;;5052622;28;20351;-71
2022/03/25 07:12:04;;;;;;;26.83;19.75;;;13.20;50.20;;;;;;5052161;28;20041;-70
2022/03/25 07:14:30;;;;;;;26.65;18.27;;;13.30;50.40;;;;;;5052227;28;20025;-70
2022/03/25 07:16:56;;;;;;;27.88;19.58;;;13.40;49.30;;;;;;5051990;28;20021;-70
2022/03/25 07:19:25;;;;;;;27.83;19.08;;;13.50;48.80;;;;;;5051540;28;20433;-70
2022/03/25 07:21:54;;;;;;;29.40;18.27;;;13.40;49.20;;;;;;5052044;28;20462;-71
2022/03/25 07:24:21;;;;;;;30.35;19.67;;;13.40;48.30;;;;;;5051806;28;20024;-70
2022/03/25 07:26:47;;;;;;;27.83;18.88;;;13.40;48.10;;;;;;5052231;28;20369;-72
2022/03/25 07:29:14;;;;;;;30.10;20.77;;;13.50;48.20;;;;;;5051576;28;20416;-70
2022/03/25 07:31:39;;;;;;;29.40;19.73;;;13.70;48.30;;;;;;5051611;28;20060;-70
2022/03/25 07:34:06;;;;;;;26.95;19.17;;;13.80;47.70;;;;;;5051388;28;20056;-70
2022/03/25 07:36:32;;;;;;;25.70;19.45;;;13.80;47.90;;;;;;5051312;28;20187;-70
2022/03/25 07:38:58;;;;;;;28.52;20.80;;;13.80;47.90;;;;;;5051497;28;20111;-71
2022/03/25 07:41:24;;;;;;;26.08;19.80;;;13.80;48.10;;;;;;5051514;28;20072;-70
2022/03/25 07:43:52;;;;;;;25.38;19.58;;;13.90;48.30;;;;;;5050343;28;20021;-71
2022/03/25 07:46:17;;;;;;;28.85;20.33;;;14.00;48.20;;;;;;5051600;28;20082;-70
2022/03/25 07:48:43;;;;;;;34.20;21.05;;;14.20;48.30;;;;;;5052662;28;20096;-71
2022/03/25 07:51:10;;;;;;;25.95;19.88;;;14.30;48.20;;;;;;5055260;28;20441;-71
2022/03/25 07:53:35;;;;;;;29.05;19.23;;;14.40;47.60;;;;;;5054021;28;20047;-70
2022/03/25 07:56:02;;;;;;;32.03;20.50;;;14.40;47.90;;;;;;5055291;28;20032;-73
2022/03/25 07:58:27;;;;;;;27.30;19.40;;;14.40;47.80;;;;;;5055338;28;20025;-71
2022/03/25 08:00:53;;;;;;;24.88;19.55;;;14.40;47.60;;;;;;5053907;28;20024;-72
2022/03/25 08:03:20;;;;;;;28.50;19.70;;;14.40;47.60;;;;;;5055214;28;20114;-71
2022/03/25 08:05:50;;;;;;;27.83;19.92;;;14.40;47.70;;;;;;5054934;28;20035;-71
2022/03/25 08:08:19;;;;;;;32.75;20.05;;;14.40;47.70;;;;;;5055121;28;20030;-71
2022/03/25 08:10:47;;;;;;;27.20;20.63;;;14.40;47.40;;;;;;5055293;28;20028;-71
2022/03/25 08:13:15;;;;;;;27.15;20.23;;;14.40;48.10;;;;;;5055140;28;20397;-71
2022/03/25 08:15:41;;;;;;;28.63;19.42;;;14.30;47.70;;;;;;5055276;28;20487;-71
2022/03/25 08:18:13;;;;;;;26.02;20.00;;;14.30;47.90;;;;;;5054970;28;20104;-71
2022/03/25 08:20:46;;;;;;;25.45;19.65;;;14.20;47.90;;;;;;5055052;28;20017;-72
2022/03/25 08:27:48;;;;;;;28.20;19.33;;;14.20;48.60;;;;;;5054864;28;20039;-70
2022/03/25 08:28:48;;;;;;;27.77;19.08;;;14.20;48.20;;;;;;5055018;28;20500;-70
2022/03/25 08:31:13;;;;;;;26.25;19.42;;;14.20;48.60;;;;;;5054741;28;20143;-71
2022/03/25 08:33:39;;;;;;;27.02;18.52;;;14.30;48.50;;;;;;5054602;28;20462;-70
2022/03/25 08:36:05;;;;;;;23.50;19.25;;;14.30;48.40;;;;;;5054855;28;20191;-71
2022/03/25 08:38:30;;;;;;;24.33;18.10;;;14.40;48.30;;;;;;5054901;28;20031;-71
2022/03/25 08:40:56;;;;;;;25.60;18.33;;;14.50;48.20;;;;;;5054569;28;20029;-71
2022/03/25 08:43:22;;;;;;;27.77;18.85;;;14.50;47.90;;;;;;5054750;28;20040;-71
2022/03/25 08:45:47;;;;;;;27.17;18.83;;;14.50;48.10;;;;;;5054600;28;20021;-72
2022/03/25 08:48:13;;;;;;;25.80;19.88;;;14.50;47.90;;;;;;5054399;28;20025;-71
2022/03/25 08:50:39;;;;;;;32.42;21.17;;;14.50;48.30;;;;;;5054372;28;20075;-71
2022/03/25 08:53:05;;;;;;;26.33;19.05;;;14.50;47.40;;;;;;5052942;28;20037;-72
2022/03/25 08:55:31;;;;;;;21.58;16.45;;;14.60;47.30;;;;;;5054254;28;20036;-72
2022/03/25 08:57:57;;;;;;;26.23;17.27;;;14.60;47.10;;;;;;5054190;28;20349;-71
2022/03/25 09:00:24;;;;;;;24.90;16.60;;;14.60;47.10;;;;;;5053071;28;20029;-71
2022/03/25 09:02:50;;;;;;;20.23;16.75;;;14.70;46.80;;;;;;5053955;28;20104;-71
2022/03/25 09:05:16;;;;;;;26.38;18.27;;;14.70;46.70;;;;;;5054170;28;20155;-72
2022/03/25 09:07:43;;;;;;;27.10;18.90;;;14.80;47.10;;;;;;5054180;28;20057;-71
2022/03/25 09:10:12;;;;;;;33.53;18.73;;;14.90;46.90;;;;;;5052502;28;20043;-71
2022/03/25 09:12:38;;;;;;;31.73;17.88;;;14.90;46.70;;;;;;5053142;28;20037;-72
2022/03/25 09:15:06;;;;;;;28.98;18.80;;;15.00;46.20;;;;;;5054136;28;20487;-71
2022/03/25 09:17:31;;;;;;;30.92;20.60;;;15.00;46.10;;;;;;5054211;28;20029;-71
2022/03/25 09:19:57;;;;;;;24.92;18.95;;;15.00;46.10;;;;;;5053644;28;20104;-72
2022/03/25 09:22:23;;;;;;;30.65;20.77;;;15.10;46.50;;;;;;5053777;28;20029;-71
2022/03/25 09:24:49;;;;;;;21.83;17.77;;;15.10;46.20;;;;;;5053860;28;20029;-71
2022/03/25 09:27:15;;;;;;;24.80;18.45;;;15.20;46.30;;;;;;5054043;28;20079;-72
2022/03/25 09:29:41;;;;;;;26.02;17.35;;;15.30;46.50;;;;;;5053713;28;20017;-71
2022/03/25 09:32:07;;;;;;;32.53;18.08;;;15.40;46.10;;;;;;5052761;28;20044;-72
2022/03/25 09:37:19;;;;;;;21.73;17.65;;;15.50;45.70;;;;;;5053904;28;20075;-71
2022/03/25 09:39:45;;;;;;;23.83;17.60;;;15.50;45.40;;;;;;5054123;28;20017;-72
2022/03/25 09:42:11;;;;;;;23.45;17.95;;;15.60;45.50;;;;;;5053900;28;20045;-71
2022/03/25 09:44:40;;;;;;;23.30;14.85;;;15.70;45.10;;;;;;5053825;28;20116;-71
2022/03/25 09:47:06;;;;;;;22.75;16.25;;;15.80;44.90;;;;;;5053730;28;20025;-71
2022/03/25 09:49:31;;;;;;;18.83;15.23;;;15.80;44.30;;;;;;5053359;28;20486;-71
2022/03/25 09:51:58;;;;;;;23.88;16.05;;;15.90;44.10;;;;;;5053681;28;20047;-71
2022/03/25 09:54:26;;;;;;;20.38;14.88;;;16.00;43.80;;;;;;5053540;28;20013;-72
2022/03/25 09:56:52;;;;;;;20.33;13.77;;;16.10;43.90;;;;;;5053505;28;20033;-71
2022/03/25 09:59:18;;;;;;;23.67;14.77;;;16.10;42.90;;;;;;5053413;28;20096;-70
2022/03/25 10:01:44;;;;;;;23.55;13.95;;;16.20;42.80;;;;;;5053308;28;20107;-74
2022/03/25 10:04:36;;;;;;;19.13;14.05;;;16.30;42.50;;;;;;5053152;28;20373;-72
2022/03/25 10:07:13;;;;;;;19.95;14.88;;;16.40;41.30;;;;;;5052528;28;20033;-71
2022/03/25 10:09:39;;;;;;;25.40;15.55;;;16.50;42.60;;;;;;5053026;28;20021;-72
2022/03/25 10:12:26;;;;;;;21.98;15.40;;;16.60;42.40;;;;;;5052701;28;20087;-72
2022/03/25 10:15:11;;;;;;;22.55;14.05;;;16.70;42.30;;;;;;5051860;28;20024;-71
2022/03/25 10:17:59;;;;;;;24.23;14.10;;;16.80;42.40;;;;;;5053485;28;20021;-71
2022/03/25 10:20:27;;;;;;;23.15;13.50;;;16.90;40.60;;;;;;5053314;28;20025;-72
2022/03/25 10:22:58;;;;;;;19.63;13.85;;;17.00;42.20;;;;;;5052969;28;20025;-73
2022/03/25 10:25:49;;;;;;;22.30;14.27;;;17.20;41.80;;;;;;5053030;28;20045;-71
2022/03/25 10:28:37;;;;;;;21.33;13.48;;;17.20;40.10;;;;;;5053188;28;20028;-70
2022/03/25 10:31:07;;;;;;;21.73;14.13;;;17.40;40.40;;;;;;5052922;28;20067;-71
2022/03/25 10:33:36;;;;;;;24.92;13.43;;;17.50;40.70;;;;;;5053028;28;20017;-72
2022/03/25 10:36:08;;;;;;;20.70;13.20;;;17.60;40.90;;;;;;5051406;28;20028;-72
2022/03/25 10:38:44;;;;;;;23.90;12.40;;;17.70;40.70;;;;;;5053046;28;20017;-72
2022/03/25 10:41:11;;;;;;;19.45;11.07;;;17.80;39.40;;;;;;5051506;28;20049;-72
2022/03/25 10:43:49;;;;;;;17.52;11.70;;;17.90;39.20;;;;;;5053083;28;20540;-72
2022/03/25 10:46:36;;;;;;;17.58;11.43;;;17.90;38.20;;;;;;5051073;28;20017;-71
2022/03/25 10:49:05;;;;;;;16.85;11.25;;;18.00;38.10;;;;;;5051074;28;20017;-71
2022/03/25 10:51:33;;;;;;;19.48;11.57;;;18.10;36.80;;;;;;5052485;28;20033;-72
2022/03/25 10:54:23;;;;;;;18.02;11.85;;;18.20;37.30;;;;;;5052608;28;20021;-70
2022/03/25 10:56:54;;;;;;;16.25;11.25;;;18.30;36.80;;;;;;5048813;28;20085;-70
2022/03/25 10:59:26;;;;;;;14.98;10.90;;;18.40;37.10;;;;;;5052357;28;20029;-72
2022/03/25 11:01:57;;;;;;;16.00;11.30;;;18.50;36.50;;;;;;5051967;28;20029;-71
2022/03/25 11:04:23;;;;;;;21.23;10.95;;;18.60;36.30;;;;;;5052008;28;20025;-70
2022/03/25 11:06:50;;;;;;;16.20;11.25;;;18.70;35.50;;;;;;5052355;28;20086;-72
2022/03/25 11:09:17;;;;;;;14.38;11.10;;;18.80;35.30;;;;;;5052013;28;20028;-73
2022/03/25 11:11:44;;;;;;;16.35;10.40;;;19.00;35.10;;;;;;5052200;28;20104;-72
2022/03/25 11:14:11;;;;;;;17.10;10.88;;;19.10;34.60;;;;;;5052409;28;20044;-71
2022/03/25 11:16:49;;;;;;;13.75;10.60;;;19.20;34.60;;;;;;5050505;28;20053;-72
2022/03/25 11:19:15;;;;;;;16.15;11.43;;;19.30;34.20;;;;;;5050466;28;20032;-71
2022/03/25 11:21:48;;;;;;;18.00;11.38;;;19.40;34.10;;;;;;5051792;28;20033;-71
2022/03/25 11:24:34;;;;;;;17.27;10.50;;;19.50;32.10;;;;;;5052682;28;20021;-71
2022/03/25 11:27:06;;;;;;;16.95;10.00;;;19.50;32.70;;;;;;5056113;28;20037;-71
2022/03/25 11:29:33;;;;;;;18.90;10.05;;;19.60;31.20;;;;;;5056233;28;20029;-71
2022/03/25 11:32:07;;;;;;;12.15;8.80;;;19.60;31.50;;;;;;5055763;28;20057;-71
2022/03/25 11:34:40;;;;;;;13.68;8.32;;;19.80;30.80;;;;;;5055677;28;20540;-71
2022/03/25 11:37:21;;;;;;;10.85;8.13;;;19.80;30.00;;;;;;5055449;28;20079;-71
2022/03/25 11:39:48;;;;;;;14.40;7.80;;;19.90;29.10;;;;;;5055266;28;20386;-71
2022/03/25 11:42:41;;;;;;;15.63;7.80;;;19.90;29.00;;;;;;5055523;28;20421;-71
2022/03/25 11:45:22;;;;;;;11.40;8.10;;;20.00;28.40;;;;;;5054622;28;20037;-72
2022/03/25 11:47:59;;;;;;;14.35;9.48;;;20.10;29.10;;;;;;5056124;28;20025;-72
2022/03/25 11:50:28;;;;;;;10.98;8.40;;;20.20;29.80;;;;;;5055664;28;20029;-71
2022/03/25 11:52:54;;;;;;;13.90;8.93;;;20.30;29.40;;;;;;5055735;28;20036;-72
2022/03/25 11:55:20;;;;;;;11.68;9.07;;;20.40;29.50;;;;;;5055756;28;20052;-72
2022/03/25 11:57:46;;;;;;;14.88;9.57;;;20.50;28.70;;;;;;5055523;28;20059;-71
2022/03/25 12:00:30;;;;;;;14.60;9.82;;;20.60;29.10;;;;;;5055422;28;20029;-71
2022/03/25 12:03:01;;;;;;;16.23;10.20;;;20.60;29.00;;;;;;5055643;28;20497;-71
2022/03/25 12:05:26;;;;;;;13.60;9.27;;;20.70;29.00;;;;;;5055856;28;20025;-71
2022/03/25 12:08:31;;;;;;;14.80;10.18;;;20.80;29.00;;;;;;5054106;28;20033;-72
2022/03/25 12:11:00;;;;;;;12.85;9.80;;;20.80;28.90;;;;;;5055029;28;20037;-71
2022/03/25 12:13:55;;;;;;;15.52;9.23;;;20.90;28.80;;;;;;5055107;28;20028;-70
2022/03/25 12:16:45;;;;;;;13.10;9.88;;;21.00;28.70;;;;;;5052843;28;20449;-70
2022/03/25 12:19:26;;;;;;;12.80;9.93;;;21.00;28.50;;;;;;5054753;28;20025;-71
2022/03/25 12:22:20;;;;;;;15.10;10.18;;;21.00;28.20;;;;;;5055436;28;20458;-71
2022/03/25 12:24:47;;;;;;;16.42;10.60;;;21.10;28.40;;;;;;5052864;28;20047;-71
2022/03/25 12:27:13;;;;;;;15.40;10.75;;;21.10;28.40;;;;;;5055402;28;20494;-72
2022/03/25 12:29:43;;;;;;;19.45;10.55;;;21.10;28.20;;;;;;5054877;28;20025;-71
2022/03/25 12:32:15;;;;;;;16.63;10.43;;;21.20;28.60;;;;;;5055286;28;20028;-73
2022/03/25 12:35:00;;;;;;;20.33;11.10;;;21.30;28.70;;;;;;5055225;28;20048;-70
2022/03/25 12:37:28;;;;;;;22.75;10.25;;;21.40;28.80;;;;;;5056590;28;20100;-71
2022/03/25 12:39:55;;;;;;;19.10;10.48;;;21.50;29.10;;;;;;5054998;28;20025;-71